sensor_id;sensor_type;location;lat;lon;timestamp;P1;durP1;ratioP1;P2;durP2;ratioP2
35518;SDS011;21627;48.216;16.482;2022-12-08T00:01:27;6.33;;;4.17;;
35518;SDS011;21627;48.216;16.482;2022-12-08T00:03:59;9.23;;;4.50;;
35518;SDS011;21627;48.216;16.482;2022-12-08T00:06:28;7.87;;;4.97;;
35518;SDS011;21627;48.216;16.482;2022-12-08T00:09:30;7.60;;;4.47;;
35518;SDS011;21627;48.216;16.482;2022-12-08T00:12:12;9.83;;;4.80;;
35518;SDS011;21627;48.216;16.482;2022-12-08T00:14:43;7.83;;;5.03;;
35518;SDS011;21627;48.216;16.482;2022-12-08T00:17:15;9.13;;;4.90;;
35518;SDS011;21627;48.216;16.482;2022-12-08T00:19:43;8.67;;;4.63;;
35518;SDS011;21627;48.216;16.482;2022-12-08T00:22:10;11.67;;;5.23;;
35518;SDS011;21627;48.216;16.482;2022-12-08T00:24:42;12.97;;;5.03;;
35518;SDS011;21627;48.216;16.482;2022-12-08T00:27:12;7.32;;;4.72;;
35518;SDS011;21627;48.216;16.482;2022-12-08T00:29:44;8.57;;;5.03;;
35518;SDS011;21627;48.216;16.482;2022-12-08T00:32:11;8.60;;;4.88;;
35518;SDS011;21627;48.216;16.482;2022-12-08T00:34:38;9.17;;;5.13;;
35518;SDS011;21627;48.216;16.482;2022-12-08T00:37:05;10.43;;;6.63;;
35518;SDS011;21627;48.216;16.482;2022-12-08T00:39:32;10.87;;;6.20;;
35518;SDS011;21627;48.216;16.482;2022-12-08T00:41:59;14.00;;;6.87;;
35518;SDS011;21627;48.216;16.482;2022-12-08T00:44:42;9.67;;;6.47;;
35518;SDS011;21627;48.216;16.482;2022-12-08T00:47:12;10.83;;;6.27;;
35518;SDS011;21627;48.216;16.482;2022-12-08T00:49:39;9.03;;;6.10;;
35518;SDS011;21627;48.216;16.482;2022-12-08T00:52:07;8.50;;;5.37;;
35518;SDS011;21627;48.216;16.482;2022-12-08T00:54:34;10.30;;;6.60;;
35518;SDS011;21627;48.216;16.482;2022-12-08T00:57:02;8.73;;;5.78;;
35518;SDS011;21627;48.216;16.482;2022-12-08T00:59:29;7.87;;;5.10;;
35518;SDS011;21627;48.216;16.482;2022-12-08T01:01:56;8.43;;;5.80;;
35518;SDS011;21627;48.216;16.482;2022-12-08T01:04:27;10.73;;;5.50;;
35518;SDS011;21627;48.216;16.482;2022-12-08T01:06:54;7.27;;;4.90;;
35518;SDS011;21627;48.216;16.482;2022-12-08T01:09:21;11.40;;;5.53;;
35518;SDS011;21627;48.216;16.482;2022-12-08T01:11:48;9.53;;;5.40;;
35518;SDS011;21627;48.216;16.482;2022-12-08T01:14:15;9.47;;;5.37;;
35518;SDS011;21627;48.216;16.482;2022-12-08T01:16:42;9.33;;;5.47;;
35518;SDS011;21627;48.216;16.482;2022-12-08T01:19:10;10.17;;;5.17;;
35518;SDS011;21627;48.216;16.482;2022-12-08T01:21:40;10.60;;;5.53;;
35518;SDS011;21627;48.216;16.482;2022-12-08T01:24:10;8.10;;;5.27;;
35518;SDS011;21627;48.216;16.482;2022-12-08T01:26:40;8.60;;;5.33;;
35518;SDS011;21627;48.216;16.482;2022-12-08T01:29:07;10.67;;;6.20;;
35518;SDS011;21627;48.216;16.482;2022-12-08T01:31:35;8.67;;;5.03;;
35518;SDS011;21627;48.216;16.482;2022-12-08T01:34:03;8.70;;;5.80;;
35518;SDS011;21627;48.216;16.482;2022-12-08T01:36:31;12.63;;;5.47;;
35518;SDS011;21627;48.216;16.482;2022-12-08T01:39:09;13.17;;;6.00;;
35518;SDS011;21627;48.216;16.482;2022-12-08T01:41:41;9.40;;;5.30;;
35518;SDS011;21627;48.216;16.482;2022-12-08T01:46:40;9.43;;;5.53;;
35518;SDS011;21627;48.216;16.482;2022-12-08T01:51:52;10.23;;;5.80;;
35518;SDS011;21627;48.216;16.482;2022-12-08T01:54:55;10.20;;;6.40;;
35518;SDS011;21627;48.216;16.482;2022-12-08T01:57:40;10.97;;;5.80;;
35518;SDS011;21627;48.216;16.482;2022-12-08T02:00:15;14.60;;;6.33;;
35518;SDS011;21627;48.216;16.482;2022-12-08T02:05:15;12.27;;;6.07;;
35518;SDS011;21627;48.216;16.482;2022-12-08T02:07:44;9.23;;;5.00;;
35518;SDS011;21627;48.216;16.482;2022-12-08T02:10:15;10.20;;;4.93;;
35518;SDS011;21627;48.216;16.482;2022-12-08T02:12:45;9.17;;;5.50;;
35518;SDS011;21627;48.216;16.482;2022-12-08T02:15:14;10.93;;;5.93;;
35518;SDS011;21627;48.216;16.482;2022-12-08T02:20:29;8.93;;;5.47;;
35518;SDS011;21627;48.216;16.482;2022-12-08T02:31:58;11.27;;;6.10;;
35518;SDS011;21627;48.216;16.482;2022-12-08T02:37:32;10.50;;;6.23;;
35518;SDS011;21627;48.216;16.482;2022-12-08T02:43:10;9.70;;;5.43;;
35518;SDS011;21627;48.216;16.482;2022-12-08T02:46:07;11.23;;;5.93;;
35518;SDS011;21627;48.216;16.482;2022-12-08T02:48:40;10.13;;;5.43;;
35518;SDS011;21627;48.216;16.482;2022-12-08T02:51:08;7.97;;;5.13;;
35518;SDS011;21627;48.216;16.482;2022-12-08T02:53:35;9.53;;;5.60;;
35518;SDS011;21627;48.216;16.482;2022-12-08T02:58:50;10.20;;;6.00;;
35518;SDS011;21627;48.216;16.482;2022-12-08T03:04:15;19.55;;;7.13;;
35518;SDS011;21627;48.216;16.482;2022-12-08T03:07:34;9.20;;;5.97;;
35518;SDS011;21627;48.216;16.482;2022-12-08T03:13:10;14.80;;;6.87;;
35518;SDS011;21627;48.216;16.482;2022-12-08T03:15:44;11.35;;;6.75;;
35518;SDS011;21627;48.216;16.482;2022-12-08T03:18:16;12.20;;;6.73;;
35518;SDS011;21627;48.216;16.482;2022-12-08T03:20:45;11.20;;;6.70;;
35518;SDS011;21627;48.216;16.482;2022-12-08T03:23:14;12.80;;;6.83;;
35518;SDS011;21627;48.216;16.482;2022-12-08T03:25:54;10.90;;;6.03;;
35518;SDS011;21627;48.216;16.482;2022-12-08T03:28:44;11.10;;;6.67;;
35518;SDS011;21627;48.216;16.482;2022-12-08T03:31:12;11.30;;;6.40;;
35518;SDS011;21627;48.216;16.482;2022-12-08T03:33:42;11.87;;;6.83;;
35518;SDS011;21627;48.216;16.482;2022-12-08T03:36:15;13.33;;;7.23;;
35518;SDS011;21627;48.216;16.482;2022-12-08T03:38:44;11.07;;;6.90;;
35518;SDS011;21627;48.216;16.482;2022-12-08T03:41:12;11.87;;;6.67;;
35518;SDS011;21627;48.216;16.482;2022-12-08T03:43:52;10.33;;;6.47;;
35518;SDS011;21627;48.216;16.482;2022-12-08T03:46:25;12.33;;;7.30;;
35518;SDS011;21627;48.216;16.482;2022-12-08T03:48:54;13.47;;;7.37;;
35518;SDS011;21627;48.216;16.482;2022-12-08T03:51:22;10.63;;;6.70;;
35518;SDS011;21627;48.216;16.482;2022-12-08T03:53:50;14.63;;;7.57;;
35518;SDS011;21627;48.216;16.482;2022-12-08T03:56:33;11.60;;;7.03;;
35518;SDS011;21627;48.216;16.482;2022-12-08T03:59:03;14.75;;;7.10;;
35518;SDS011;21627;48.216;16.482;2022-12-08T04:01:31;11.40;;;6.60;;
35518;SDS011;21627;48.216;16.482;2022-12-08T04:03:58;11.30;;;6.63;;
35518;SDS011;21627;48.216;16.482;2022-12-08T04:06:26;13.83;;;6.57;;
35518;SDS011;21627;48.216;16.482;2022-12-08T04:08:53;11.00;;;6.50;;
35518;SDS011;21627;48.216;16.482;2022-12-08T04:11:20;10.37;;;6.47;;
35518;SDS011;21627;48.216;16.482;2022-12-08T04:13:47;13.27;;;6.37;;
35518;SDS011;21627;48.216;16.482;2022-12-08T04:16:19;13.73;;;6.70;;
35518;SDS011;21627;48.216;16.482;2022-12-08T04:18:49;12.33;;;6.53;;
35518;SDS011;21627;48.216;16.482;2022-12-08T04:21:16;9.63;;;6.30;;
35518;SDS011;21627;48.216;16.482;2022-12-08T04:23:44;11.40;;;7.10;;
35518;SDS011;21627;48.216;16.482;2022-12-08T04:26:13;12.83;;;6.47;;
35518;SDS011;21627;48.216;16.482;2022-12-08T04:28:40;12.10;;;6.50;;
35518;SDS011;21627;48.216;16.482;2022-12-08T04:31:08;13.50;;;6.30;;
35518;SDS011;21627;48.216;16.482;2022-12-08T04:33:35;11.30;;;6.20;;
35518;SDS011;21627;48.216;16.482;2022-12-08T04:36:03;10.53;;;5.77;;
35518;SDS011;21627;48.216;16.482;2022-12-08T04:38:32;13.23;;;6.30;;
35518;SDS011;21627;48.216;16.482;2022-12-08T04:41:00;12.73;;;6.70;;
35518;SDS011;21627;48.216;16.482;2022-12-08T04:43:27;10.47;;;6.27;;
35518;SDS011;21627;48.216;16.482;2022-12-08T04:45:55;12.63;;;6.57;;
35518;SDS011;21627;48.216;16.482;2022-12-08T04:48:22;13.03;;;6.30;;
35518;SDS011;21627;48.216;16.482;2022-12-08T04:50:49;10.23;;;6.10;;
35518;SDS011;21627;48.216;16.482;2022-12-08T04:53:16;12.60;;;6.60;;
35518;SDS011;21627;48.216;16.482;2022-12-08T04:55:45;15.93;;;6.40;;
35518;SDS011;21627;48.216;16.482;2022-12-08T04:58:14;13.50;;;6.87;;
35518;SDS011;21627;48.216;16.482;2022-12-08T05:00:46;11.47;;;6.70;;
35518;SDS011;21627;48.216;16.482;2022-12-08T05:03:14;13.93;;;6.53;;
35518;SDS011;21627;48.216;16.482;2022-12-08T05:05:42;13.30;;;7.00;;
35518;SDS011;21627;48.216;16.482;2022-12-08T05:08:09;10.87;;;5.77;;
35518;SDS011;21627;48.216;16.482;2022-12-08T05:10:37;10.13;;;6.13;;
35518;SDS011;21627;48.216;16.482;2022-12-08T05:13:04;9.03;;;5.77;;
35518;SDS011;21627;48.216;16.482;2022-12-08T05:15:31;10.53;;;6.00;;
35518;SDS011;21627;48.216;16.482;2022-12-08T05:17:58;11.17;;;5.90;;
35518;SDS011;21627;48.216;16.482;2022-12-08T05:20:26;9.77;;;6.20;;
35518;SDS011;21627;48.216;16.482;2022-12-08T05:22:53;14.40;;;5.83;;
35518;SDS011;21627;48.216;16.482;2022-12-08T05:25:20;16.80;;;6.20;;
35518;SDS011;21627;48.216;16.482;2022-12-08T05:27:47;9.10;;;6.23;;
35518;SDS011;21627;48.216;16.482;2022-12-08T05:30:14;12.40;;;5.87;;
35518;SDS011;21627;48.216;16.482;2022-12-08T05:32:41;11.07;;;5.93;;
35518;SDS011;21627;48.216;16.482;2022-12-08T05:35:09;11.40;;;6.87;;
35518;SDS011;21627;48.216;16.482;2022-12-08T05:37:36;11.53;;;6.70;;
35518;SDS011;21627;48.216;16.482;2022-12-08T05:40:03;10.37;;;6.17;;
35518;SDS011;21627;48.216;16.482;2022-12-08T05:42:32;10.40;;;5.77;;
35518;SDS011;21627;48.216;16.482;2022-12-08T05:44:59;11.40;;;6.23;;
35518;SDS011;21627;48.216;16.482;2022-12-08T05:47:26;10.40;;;5.77;;
35518;SDS011;21627;48.216;16.482;2022-12-08T05:49:59;10.37;;;5.93;;
35518;SDS011;21627;48.216;16.482;2022-12-08T05:52:27;11.57;;;5.97;;
35518;SDS011;21627;48.216;16.482;2022-12-08T05:54:54;8.23;;;5.73;;
35518;SDS011;21627;48.216;16.482;2022-12-08T05:57:21;9.73;;;5.83;;
35518;SDS011;21627;48.216;16.482;2022-12-08T05:59:52;11.43;;;6.10;;
35518;SDS011;21627;48.216;16.482;2022-12-08T06:02:19;11.40;;;6.03;;
35518;SDS011;21627;48.216;16.482;2022-12-08T06:04:47;11.67;;;6.40;;
35518;SDS011;21627;48.216;16.482;2022-12-08T06:07:14;10.80;;;6.73;;
35518;SDS011;21627;48.216;16.482;2022-12-08T06:09:44;16.50;;;7.30;;
35518;SDS011;21627;48.216;16.482;2022-12-08T06:12:11;11.50;;;6.90;;
35518;SDS011;21627;48.216;16.482;2022-12-08T06:14:38;13.27;;;6.93;;
35518;SDS011;21627;48.216;16.482;2022-12-08T06:17:05;12.97;;;6.67;;
35518;SDS011;21627;48.216;16.482;2022-12-08T06:19:33;11.87;;;6.73;;
35518;SDS011;21627;48.216;16.482;2022-12-08T06:22:00;11.80;;;6.73;;
35518;SDS011;21627;48.216;16.482;2022-12-08T06:24:27;15.30;;;6.77;;
35518;SDS011;21627;48.216;16.482;2022-12-08T06:26:54;12.17;;;6.50;;
35518;SDS011;21627;48.216;16.482;2022-12-08T06:29:21;12.27;;;7.67;;
35518;SDS011;21627;48.216;16.482;2022-12-08T06:31:48;11.90;;;7.87;;
35518;SDS011;21627;48.216;16.482;2022-12-08T06:34:17;11.47;;;6.83;;
35518;SDS011;21627;48.216;16.482;2022-12-08T06:36:44;11.60;;;7.53;;
35518;SDS011;21627;48.216;16.482;2022-12-08T06:39:11;13.27;;;7.53;;
35518;SDS011;21627;48.216;16.482;2022-12-08T06:41:38;13.20;;;8.00;;
35518;SDS011;21627;48.216;16.482;2022-12-08T06:44:24;13.35;;;7.05;;
35518;SDS011;21627;48.216;16.482;2022-12-08T06:46:51;13.17;;;7.53;;
35518;SDS011;21627;48.216;16.482;2022-12-08T06:49:21;13.33;;;7.47;;
35518;SDS011;21627;48.216;16.482;2022-12-08T06:51:49;13.27;;;8.43;;
35518;SDS011;21627;48.216;16.482;2022-12-08T06:54:16;18.47;;;8.40;;
35518;SDS011;21627;48.216;16.482;2022-12-08T06:56:43;13.93;;;8.43;;
35518;SDS011;21627;48.216;16.482;2022-12-08T06:59:10;12.47;;;7.73;;
35518;SDS011;21627;48.216;16.482;2022-12-08T07:01:37;12.93;;;8.57;;
35518;SDS011;21627;48.216;16.482;2022-12-08T07:04:04;13.27;;;7.97;;
35518;SDS011;21627;48.216;16.482;2022-12-08T07:06:31;17.73;;;8.90;;
35518;SDS011;21627;48.216;16.482;2022-12-08T07:08:58;18.17;;;9.65;;
35518;SDS011;21627;48.216;16.482;2022-12-08T07:11:25;17.43;;;9.90;;
35518;SDS011;21627;48.216;16.482;2022-12-08T07:13:54;19.13;;;10.50;;
35518;SDS011;21627;48.216;16.482;2022-12-08T07:16:22;19.30;;;10.00;;
35518;SDS011;21627;48.216;16.482;2022-12-08T07:18:50;25.57;;;11.83;;
35518;SDS011;21627;48.216;16.482;2022-12-08T07:21:17;20.03;;;11.77;;
35518;SDS011;21627;48.216;16.482;2022-12-08T07:23:44;24.93;;;12.97;;
35518;SDS011;21627;48.216;16.482;2022-12-08T07:26:22;21.50;;;12.33;;
35518;SDS011;21627;48.216;16.482;2022-12-08T07:28:50;22.87;;;12.53;;
35518;SDS011;21627;48.216;16.482;2022-12-08T07:31:18;21.47;;;11.97;;
35518;SDS011;21627;48.216;16.482;2022-12-08T07:33:48;22.23;;;11.77;;
35518;SDS011;21627;48.216;16.482;2022-12-08T07:36:16;20.70;;;12.40;;
35518;SDS011;21627;48.216;16.482;2022-12-08T07:38:43;21.33;;;11.87;;
35518;SDS011;21627;48.216;16.482;2022-12-08T07:41:32;19.57;;;11.30;;
35518;SDS011;21627;48.216;16.482;2022-12-08T07:43:58;20.33;;;10.97;;
35518;SDS011;21627;48.216;16.482;2022-12-08T07:46:25;18.97;;;10.63;;
35518;SDS011;21627;48.216;16.482;2022-12-08T07:48:53;19.57;;;11.10;;
35518;SDS011;21627;48.216;16.482;2022-12-08T07:51:22;17.37;;;10.53;;
35518;SDS011;21627;48.216;16.482;2022-12-08T07:53:50;18.33;;;10.43;;
35518;SDS011;21627;48.216;16.482;2022-12-08T07:56:20;16.83;;;9.77;;
35518;SDS011;21627;48.216;16.482;2022-12-08T07:58:48;15.90;;;9.67;;
35518;SDS011;21627;48.216;16.482;2022-12-08T08:01:20;18.47;;;10.13;;
35518;SDS011;21627;48.216;16.482;2022-12-08T08:03:54;15.90;;;9.73;;
35518;SDS011;21627;48.216;16.482;2022-12-08T08:06:23;16.80;;;9.77;;
35518;SDS011;21627;48.216;16.482;2022-12-08T08:08:50;16.63;;;9.60;;
35518;SDS011;21627;48.216;16.482;2022-12-08T08:11:17;16.77;;;10.20;;
35518;SDS011;21627;48.216;16.482;2022-12-08T08:13:47;19.97;;;10.20;;
35518;SDS011;21627;48.216;16.482;2022-12-08T08:16:15;15.27;;;9.13;;
35518;SDS011;21627;48.216;16.482;2022-12-08T08:18:45;16.87;;;10.17;;
35518;SDS011;21627;48.216;16.482;2022-12-08T08:21:14;17.73;;;9.65;;
35518;SDS011;21627;48.216;16.482;2022-12-08T08:24:05;15.10;;;9.57;;
35518;SDS011;21627;48.216;16.482;2022-12-08T08:26:32;19.02;;;9.35;;
35518;SDS011;21627;48.216;16.482;2022-12-08T08:29:02;17.10;;;9.57;;
35518;SDS011;21627;48.216;16.482;2022-12-08T08:31:29;16.45;;;10.00;;
35518;SDS011;21627;48.216;16.482;2022-12-08T08:33:56;15.93;;;9.83;;
35518;SDS011;21627;48.216;16.482;2022-12-08T08:36:26;19.70;;;10.00;;
35518;SDS011;21627;48.216;16.482;2022-12-08T08:38:53;18.00;;;10.43;;
35518;SDS011;21627;48.216;16.482;2022-12-08T08:41:20;16.40;;;9.88;;
35518;SDS011;21627;48.216;16.482;2022-12-08T08:43:47;17.30;;;9.82;;
35518;SDS011;21627;48.216;16.482;2022-12-08T08:46:14;15.07;;;9.02;;
35518;SDS011;21627;48.216;16.482;2022-12-08T08:48:41;15.30;;;8.70;;
35518;SDS011;21627;48.216;16.482;2022-12-08T08:51:09;16.33;;;9.70;;
35518;SDS011;21627;48.216;16.482;2022-12-08T08:53:38;15.15;;;8.38;;
35518;SDS011;21627;48.216;16.482;2022-12-08T08:56:10;16.90;;;10.20;;
35518;SDS011;21627;48.216;16.482;2022-12-08T08:58:40;14.95;;;9.27;;
35518;SDS011;21627;48.216;16.482;2022-12-08T09:01:07;18.58;;;10.15;;
35518;SDS011;21627;48.216;16.482;2022-12-08T09:03:39;19.40;;;10.02;;
35518;SDS011;21627;48.216;16.482;2022-12-08T09:06:06;14.10;;;9.05;;
35518;SDS011;21627;48.216;16.482;2022-12-08T09:08:34;14.77;;;9.40;;
35518;SDS011;21627;48.216;16.482;2022-12-08T09:11:01;16.02;;;10.15;;
35518;SDS011;21627;48.216;16.482;2022-12-08T09:13:28;20.88;;;11.38;;
35518;SDS011;21627;48.216;16.482;2022-12-08T09:15:55;19.23;;;9.70;;
35518;SDS011;21627;48.216;16.482;2022-12-08T09:18:22;17.87;;;10.27;;
35518;SDS011;21627;48.216;16.482;2022-12-08T09:20:50;19.17;;;9.98;;
35518;SDS011;21627;48.216;16.482;2022-12-08T09:23:17;15.93;;;9.25;;
35518;SDS011;21627;48.216;16.482;2022-12-08T09:25:44;14.57;;;9.55;;
35518;SDS011;21627;48.216;16.482;2022-12-08T09:28:12;16.45;;;10.02;;
35518;SDS011;21627;48.216;16.482;2022-12-08T09:30:40;14.63;;;9.55;;
35518;SDS011;21627;48.216;16.482;2022-12-08T09:33:07;16.98;;;10.18;;
35518;SDS011;21627;48.216;16.482;2022-12-08T09:35:34;16.38;;;9.23;;
35518;SDS011;21627;48.216;16.482;2022-12-08T09:38:01;22.55;;;9.38;;
35518;SDS011;21627;48.216;16.482;2022-12-08T09:40:28;12.98;;;8.60;;
35518;SDS011;21627;48.216;16.482;2022-12-08T09:43:09;17.15;;;9.48;;
35518;SDS011;21627;48.216;16.482;2022-12-08T09:46:04;16.83;;;9.35;;
35518;SDS011;21627;48.216;16.482;2022-12-08T09:48:38;13.63;;;8.15;;
35518;SDS011;21627;48.216;16.482;2022-12-08T09:51:10;13.70;;;7.35;;
35518;SDS011;21627;48.216;16.482;2022-12-08T09:53:47;13.43;;;7.10;;
35518;SDS011;21627;48.216;16.482;2022-12-08T09:56:22;12.88;;;6.43;;
35518;SDS011;21627;48.216;16.482;2022-12-08T09:59:05;10.57;;;6.35;;
35518;SDS011;21627;48.216;16.482;2022-12-08T10:01:48;13.15;;;6.82;;
35518;SDS011;21627;48.216;16.482;2022-12-08T10:04:21;12.25;;;7.05;;
35518;SDS011;21627;48.216;16.482;2022-12-08T10:07:17;13.27;;;8.25;;
35518;SDS011;21627;48.216;16.482;2022-12-08T10:10:28;15.18;;;8.80;;
35518;SDS011;21627;48.216;16.482;2022-12-08T10:18:32;16.27;;;6.97;;
35518;SDS011;21627;48.216;16.482;2022-12-08T10:21:20;14.05;;;7.97;;
35518;SDS011;21627;48.216;16.482;2022-12-08T10:23:54;13.30;;;7.97;;
35518;SDS011;21627;48.216;16.482;2022-12-08T10:26:29;16.80;;;8.60;;
35518;SDS011;21627;48.216;16.482;2022-12-08T10:29:00;13.73;;;7.70;;
35518;SDS011;21627;48.216;16.482;2022-12-08T10:31:28;13.27;;;7.70;;
35518;SDS011;21627;48.216;16.482;2022-12-08T10:33:58;14.50;;;8.02;;
35518;SDS011;21627;48.216;16.482;2022-12-08T10:39:34;17.65;;;8.98;;
35518;SDS011;21627;48.216;16.482;2022-12-08T10:47:42;16.65;;;9.77;;
35518;SDS011;21627;48.216;16.482;2022-12-08T10:53:24;18.48;;;9.32;;
35518;SDS011;21627;48.216;16.482;2022-12-08T11:00:57;16.38;;;10.48;;
35518;SDS011;21627;48.216;16.482;2022-12-08T11:09:20;19.15;;;10.75;;
35518;SDS011;21627;48.216;16.482;2022-12-08T11:12:12;18.83;;;9.40;;
35518;SDS011;21627;48.216;16.482;2022-12-08T11:14:46;19.13;;;10.60;;
35518;SDS011;21627;48.216;16.482;2022-12-08T11:17:22;15.27;;;8.90;;
35518;SDS011;21627;48.216;16.482;2022-12-08T11:22:42;19.48;;;10.85;;
35518;SDS011;21627;48.216;16.482;2022-12-08T11:25:24;21.52;;;10.55;;
35518;SDS011;21627;48.216;16.482;2022-12-08T11:27:55;15.95;;;9.80;;
35518;SDS011;21627;48.216;16.482;2022-12-08T11:30:29;14.73;;;8.32;;
35518;SDS011;21627;48.216;16.482;2022-12-08T11:35:50;15.27;;;9.00;;
35518;SDS011;21627;48.216;16.482;2022-12-08T11:38:26;17.30;;;8.60;;
35518;SDS011;21627;48.216;16.482;2022-12-08T11:40:59;16.27;;;9.45;;
35518;SDS011;21627;48.216;16.482;2022-12-08T11:46:24;20.38;;;10.57;;
35518;SDS011;21627;48.216;16.482;2022-12-08T11:49:04;17.10;;;10.18;;
35518;SDS011;21627;48.216;16.482;2022-12-08T11:54:23;17.00;;;10.77;;
35518;SDS011;21627;48.216;16.482;2022-12-08T11:57:11;16.67;;;10.27;;
35518;SDS011;21627;48.216;16.482;2022-12-08T11:59:49;16.88;;;9.85;;
35518;SDS011;21627;48.216;16.482;2022-12-08T12:02:23;17.20;;;10.13;;
35518;SDS011;21627;48.216;16.482;2022-12-08T12:05:22;18.35;;;11.10;;
35518;SDS011;21627;48.216;16.482;2022-12-08T12:17:05;16.65;;;10.02;;
35518;SDS011;21627;48.216;16.482;2022-12-08T12:19:53;22.63;;;11.95;;
35518;SDS011;21627;48.216;16.482;2022-12-08T12:22:24;18.13;;;10.60;;
35518;SDS011;21627;48.216;16.482;2022-12-08T12:24:58;17.55;;;10.52;;
35518;SDS011;21627;48.216;16.482;2022-12-08T12:27:27;20.40;;;11.85;;
35518;SDS011;21627;48.216;16.482;2022-12-08T12:30:05;18.55;;;10.32;;
35518;SDS011;21627;48.216;16.482;2022-12-08T12:32:52;24.70;;;11.77;;
35518;SDS011;21627;48.216;16.482;2022-12-08T12:38:12;21.48;;;11.10;;
35518;SDS011;21627;48.216;16.482;2022-12-08T12:41:22;27.58;;;11.57;;
35518;SDS011;21627;48.216;16.482;2022-12-08T12:46:56;22.52;;;11.55;;
35518;SDS011;21627;48.216;16.482;2022-12-08T12:54:44;20.13;;;11.85;;
35518;SDS011;21627;48.216;16.482;2022-12-08T13:00:04;22.00;;;12.32;;
35518;SDS011;21627;48.216;16.482;2022-12-08T13:02:39;19.83;;;11.25;;
35518;SDS011;21627;48.216;16.482;2022-12-08T13:05:17;17.98;;;10.68;;
35518;SDS011;21627;48.216;16.482;2022-12-08T13:11:01;17.45;;;11.13;;
35518;SDS011;21627;48.216;16.482;2022-12-08T13:13:36;20.95;;;11.65;;
35518;SDS011;21627;48.216;16.482;2022-12-08T13:18:57;22.10;;;12.68;;
35518;SDS011;21627;48.216;16.482;2022-12-08T13:21:32;20.33;;;12.25;;
35518;SDS011;21627;48.216;16.482;2022-12-08T13:47:58;19.10;;;11.88;;
35518;SDS011;21627;48.216;16.482;2022-12-08T13:57:12;22.25;;;13.20;;
35518;SDS011;21627;48.216;16.482;2022-12-08T14:02:26;19.27;;;11.85;;
35518;SDS011;21627;48.216;16.482;2022-12-08T14:05:13;24.95;;;13.27;;
35518;SDS011;21627;48.216;16.482;2022-12-08T14:10:21;24.00;;;14.32;;
35518;SDS011;21627;48.216;16.482;2022-12-08T14:12:57;28.50;;;13.80;;
35518;SDS011;21627;48.216;16.482;2022-12-08T14:15:31;25.00;;;14.75;;
35518;SDS011;21627;48.216;16.482;2022-12-08T14:18:04;22.08;;;13.13;;
35518;SDS011;21627;48.216;16.482;2022-12-08T14:20:46;22.48;;;13.35;;
35518;SDS011;21627;48.216;16.482;2022-12-08T14:23:46;21.30;;;12.68;;
35518;SDS011;21627;48.216;16.482;2022-12-08T14:26:14;24.83;;;14.55;;
35518;SDS011;21627;48.216;16.482;2022-12-08T14:28:41;22.10;;;12.98;;
35518;SDS011;21627;48.216;16.482;2022-12-08T14:31:10;23.23;;;14.02;;
35518;SDS011;21627;48.216;16.482;2022-12-08T14:33:40;23.40;;;13.50;;
35518;SDS011;21627;48.216;16.482;2022-12-08T14:36:08;22.38;;;12.98;;
35518;SDS011;21627;48.216;16.482;2022-12-08T14:38:36;22.45;;;13.98;;
35518;SDS011;21627;48.216;16.482;2022-12-08T14:41:04;24.48;;;12.85;;
35518;SDS011;21627;48.216;16.482;2022-12-08T14:43:34;25.23;;;14.00;;
35518;SDS011;21627;48.216;16.482;2022-12-08T14:46:03;25.55;;;14.90;;
35518;SDS011;21627;48.216;16.482;2022-12-08T14:48:45;24.83;;;13.88;;
35518;SDS011;21627;48.216;16.482;2022-12-08T14:53:59;26.23;;;13.98;;
35518;SDS011;21627;48.216;16.482;2022-12-08T14:59:14;23.02;;;13.95;;
35518;SDS011;21627;48.216;16.482;2022-12-08T15:01:49;23.85;;;14.73;;
35518;SDS011;21627;48.216;16.482;2022-12-08T15:04:24;20.75;;;12.85;;
35518;SDS011;21627;48.216;16.482;2022-12-08T15:07:06;23.38;;;13.52;;
35518;SDS011;21627;48.216;16.482;2022-12-08T15:09:46;28.48;;;14.30;;
35518;SDS011;21627;48.216;16.482;2022-12-08T15:12:31;24.63;;;14.93;;
35518;SDS011;21627;48.216;16.482;2022-12-08T15:23:16;25.10;;;14.77;;
35518;SDS011;21627;48.216;16.482;2022-12-08T15:25:56;23.27;;;13.85;;
35518;SDS011;21627;48.216;16.482;2022-12-08T15:28:26;24.90;;;13.57;;
35518;SDS011;21627;48.216;16.482;2022-12-08T15:30:56;26.98;;;14.93;;
35518;SDS011;21627;48.216;16.482;2022-12-08T15:33:24;27.15;;;15.45;;
35518;SDS011;21627;48.216;16.482;2022-12-08T15:35:52;27.20;;;14.95;;
35518;SDS011;21627;48.216;16.482;2022-12-08T15:38:21;23.52;;;15.18;;
35518;SDS011;21627;48.216;16.482;2022-12-08T15:40:52;24.52;;;13.80;;
35518;SDS011;21627;48.216;16.482;2022-12-08T15:43:20;26.33;;;14.45;;
35518;SDS011;21627;48.216;16.482;2022-12-08T15:45:48;28.58;;;15.02;;
35518;SDS011;21627;48.216;16.482;2022-12-08T15:48:26;24.38;;;15.02;;
35518;SDS011;21627;48.216;16.482;2022-12-08T15:50:55;25.60;;;13.75;;
35518;SDS011;21627;48.216;16.482;2022-12-08T15:53:22;25.20;;;15.25;;
35518;SDS011;21627;48.216;16.482;2022-12-08T15:55:50;31.80;;;15.55;;
35518;SDS011;21627;48.216;16.482;2022-12-08T15:58:37;28.48;;;14.80;;
35518;SDS011;21627;48.216;16.482;2022-12-08T16:01:22;27.73;;;15.00;;
35518;SDS011;21627;48.216;16.482;2022-12-08T16:03:50;23.13;;;14.48;;
35518;SDS011;21627;48.216;16.482;2022-12-08T16:06:37;33.53;;;15.85;;
35518;SDS011;21627;48.216;16.482;2022-12-08T16:09:35;25.67;;;14.45;;
35518;SDS011;21627;48.216;16.482;2022-12-08T16:12:16;27.25;;;15.48;;
35518;SDS011;21627;48.216;16.482;2022-12-08T16:15:25;27.60;;;15.50;;
35518;SDS011;21627;48.216;16.482;2022-12-08T16:18:16;30.75;;;15.85;;
35518;SDS011;21627;48.216;16.482;2022-12-08T16:20:51;29.27;;;17.10;;
35518;SDS011;21627;48.216;16.482;2022-12-08T16:23:38;34.47;;;17.08;;
35518;SDS011;21627;48.216;16.482;2022-12-08T16:26:17;35.17;;;18.33;;
35518;SDS011;21627;48.216;16.482;2022-12-08T16:29:08;27.63;;;15.55;;
35518;SDS011;21627;48.216;16.482;2022-12-08T16:31:46;30.27;;;16.10;;
35518;SDS011;21627;48.216;16.482;2022-12-08T16:34:13;24.58;;;15.23;;
35518;SDS011;21627;48.216;16.482;2022-12-08T16:36:41;28.90;;;15.80;;
35518;SDS011;21627;48.216;16.482;2022-12-08T16:39:09;33.90;;;18.17;;
35518;SDS011;21627;48.216;16.482;2022-12-08T16:41:39;30.65;;;15.85;;
35518;SDS011;21627;48.216;16.482;2022-12-08T16:44:24;30.15;;;16.98;;
35518;SDS011;21627;48.216;16.482;2022-12-08T16:46:52;33.40;;;15.88;;
35518;SDS011;21627;48.216;16.482;2022-12-08T16:49:19;38.92;;;17.98;;
35518;SDS011;21627;48.216;16.482;2022-12-08T16:51:46;34.47;;;17.33;;
35518;SDS011;21627;48.216;16.482;2022-12-08T16:54:13;30.17;;;14.77;;
35518;SDS011;21627;48.216;16.482;2022-12-08T16:56:40;28.27;;;15.88;;
35518;SDS011;21627;48.216;16.482;2022-12-08T16:59:08;31.63;;;17.65;;
35518;SDS011;21627;48.216;16.482;2022-12-08T17:01:35;33.10;;;16.98;;
35518;SDS011;21627;48.216;16.482;2022-12-08T17:04:03;31.80;;;17.70;;
35518;SDS011;21627;48.216;16.482;2022-12-08T17:06:51;29.70;;;16.35;;
35518;SDS011;21627;48.216;16.482;2022-12-08T17:09:18;33.55;;;17.92;;
35518;SDS011;21627;48.216;16.482;2022-12-08T17:11:45;36.00;;;17.40;;
35518;SDS011;21627;48.216;16.482;2022-12-08T17:14:16;33.67;;;18.10;;
35518;SDS011;21627;48.216;16.482;2022-12-08T17:16:44;32.40;;;17.70;;
35518;SDS011;21627;48.216;16.482;2022-12-08T17:19:12;36.67;;;16.63;;